createdAt,value
2018-01-22T00:04:47.435Z,100820.55
2018-01-22T00:09:48.816Z,100827.50
2018-01-22T00:14:50.178Z,100797.73
2018-01-22T00:19:51.519Z,100785.27
2018-01-22T00:24:52.875Z,100778.70
2018-01-22T00:29:54.200Z,100762.25
2018-01-22T00:34:56.290Z,100756.62
2018-01-22T00:39:57.619Z,100743.81
2018-01-22T00:44:59.744Z,100746.32
2018-01-22T00:50:01.079Z,100726.78
2018-01-22T00:55:02.402Z,100686.86
2018-01-22T01:00:04.528Z,100652.41
2018-01-22T01:05:05.851Z,100642.38
2018-01-22T01:10:07.167Z,100637.52
2018-01-22T01:15:08.577Z,100632.61
2018-01-22T01:20:09.951Z,100601.52
2018-01-22T01:25:11.331Z,100585.98
2018-01-22T01:30:12.657Z,100576.97
2018-01-22T01:35:14.000Z,100578.18
2018-01-22T01:40:15.355Z,100594.26
2018-01-22T01:45:16.711Z,100587.67
2018-01-22T01:50:18.872Z,100591.97
2018-01-22T01:55:20.293Z,100591.84
2018-01-22T02:00:21.663Z,100601.06
2018-01-22T02:05:22.985Z,100600.50
2018-01-22T02:10:24.273Z,100607.31
2018-01-22T02:15:26.326Z,100596.48
2018-01-22T02:20:27.707Z,100577.52
2018-01-22T02:25:29.055Z,100561.45
2018-01-22T02:30:30.372Z,100561.92
2018-01-22T02:35:31.702Z,100537.67
2018-01-22T02:40:32.990Z,100507.36
2018-01-22T02:45:34.314Z,100505.66
2018-01-22T02:50:36.395Z,100494.00
2018-01-22T02:55:37.766Z,100487.90
2018-01-22T03:00:39.092Z,100472.88
2018-01-22T03:05:40.420Z,100482.33
2018-01-22T03:10:41.748Z,100470.02
2018-01-22T03:15:43.063Z,100440.78
2018-01-22T03:20:44.421Z,100435.66
2018-01-22T03:25:45.758Z,100397.49
2018-01-22T03:30:47.849Z,100374.38
2018-01-22T03:35:49.895Z,100375.28
2018-01-22T03:40:51.918Z,100383.47
2018-01-22T03:45:53.873Z,100381.53
2018-01-22T03:50:55.275Z,100379.52
2018-01-22T03:55:57.335Z,100370.03
2018-01-22T04:00:58.670Z,100350.80
2018-01-22T04:06:00.715Z,100343.52
2018-01-22T04:11:02.076Z,100344.01
2018-01-22T04:16:03.387Z,100359.92
2018-01-22T04:21:04.711Z,100352.31
2018-01-22T04:26:06.027Z,100345.34
2018-01-22T04:31:08.136Z,100328.85
2018-01-22T04:36:10.231Z,100311.99
2018-01-22T04:41:11.575Z,100324.28
2018-01-22T04:46:12.906Z,100332.30
2018-01-22T04:51:14.215Z,100342.25
2018-01-22T04:56:16.255Z,100330.64
2018-01-22T05:01:17.587Z,100321.16
2018-01-22T05:06:18.930Z,100321.83
2018-01-22T05:11:20.247Z,100306.78
2018-01-22T05:16:21.591Z,100294.34
2018-01-22T05:21:22.919Z,100286.95
2018-01-22T05:26:24.247Z,100270.44
2018-01-22T05:31:25.592Z,100269.75
2018-01-22T05:36:26.899Z,100268.67
2018-01-22T05:41:28.211Z,100268.33
2018-01-22T05:46:29.535Z,100272.76
2018-01-22T05:51:30.911Z,100271.20
2018-01-22T05:56:32.219Z,100256.28
2018-01-22T06:01:33.552Z,100232.22
2018-01-22T06:06:34.895Z,100227.92
2018-01-22T06:11:36.251Z,100213.14
2018-01-22T06:16:38.319Z,100214.43
2018-01-22T06:21:39.668Z,100199.47
2018-01-22T06:26:41.116Z,100211.44
2018-01-22T06:31:42.467Z,100200.65
2018-01-22T06:36:43.786Z,100187.52
2018-01-22T06:41:45.144Z,100176.66
2018-01-22T06:46:46.451Z,100194.42
2018-01-22T06:51:47.756Z,100193.41
2018-01-22T06:56:49.095Z,100197.02
2018-01-22T07:01:50.403Z,100184.84
2018-01-22T07:06:51.743Z,100171.42
2018-01-22T07:11:53.055Z,100178.36
2018-01-22T07:16:55.162Z,100181.60
2018-01-22T07:21:57.240Z,100178.55
2018-01-22T07:26:58.556Z,100171.30
2018-01-22T07:32:00.718Z,100172.87
2018-01-22T07:37:02.086Z,100165.53
2018-01-22T07:42:03.463Z,100180.12
2018-01-22T07:47:04.867Z,100161.08
2018-01-22T07:52:06.252Z,100170.01
2018-01-22T07:57:07.551Z,100149.02
2018-01-22T08:02:08.898Z,100140.52
2018-01-22T08:07:10.978Z,100130.55
2018-01-22T08:12:12.373Z,100123.23
2018-01-22T08:17:13.721Z,100120.24
2018-01-22T08:22:15.077Z,100121.77
2018-01-22T08:27:17.131Z,100126.91
2018-01-22T08:32:18.456Z,100129.44
2018-01-22T08:37:19.774Z,100131.42
2018-01-22T08:42:21.911Z,100140.70
2018-01-22T08:47:23.214Z,100131.02
2018-01-22T08:52:24.543Z,100133.83
2018-01-22T08:57:26.624Z,100121.73
2018-01-22T09:02:27.970Z,100121.73
2018-01-22T09:07:29.336Z,100121.39
2018-01-22T09:12:30.664Z,100135.19
2018-01-22T09:17:32.009Z,100121.67
2018-01-22T09:22:33.358Z,100122.42
2018-01-22T09:27:34.719Z,100114.56
2018-01-22T09:32:36.023Z,100115.27
2018-01-22T09:37:37.387Z,100115.66
2018-01-22T09:42:39.477Z,100118.09
2018-01-22T09:47:41.530Z,100111.69
2018-01-22T09:52:42.868Z,100112.95
2018-01-22T09:57:44.947Z,100111.89
2018-01-22T10:02:46.294Z,100118.09
2018-01-22T10:07:47.644Z,100103.83
2018-01-22T10:12:48.985Z,100118.84
2018-01-22T10:17:50.335Z,100120.52
2018-01-22T10:22:52.409Z,100116.06
2018-01-22T10:27:53.712Z,100110.18
2018-01-22T10:32:55.047Z,100118.28
2018-01-22T10:37:56.395Z,100106.62
2018-01-22T10:42:57.736Z,100098.70
2018-01-22T10:47:59.068Z,100100.48
2018-01-22T10:53:00.387Z,100098.60
2018-01-22T10:58:02.476Z,100090.16
2018-01-22T11:03:03.800Z,100093.00
2018-01-22T11:08:05.990Z,100089.06
2018-01-22T11:13:08.053Z,100093.25
2018-01-22T11:18:09.366Z,100091.80
2018-01-22T11:23:10.692Z,100099.31
2018-01-22T11:28:12.028Z,100099.17
2018-01-22T11:33:13.377Z,100098.20
2018-01-22T11:38:14.727Z,100088.87
2018-01-22T11:43:16.057Z,100086.98
2018-01-22T11:48:17.392Z,100077.01
2018-01-22T11:53:18.747Z,100075.75
2018-01-22T11:58:20.120Z,100085.38
2018-01-22T12:03:21.478Z,100081.91
2018-01-22T12:08:22.859Z,100090.81
2018-01-22T12:13:24.225Z,100081.13
2018-01-22T12:18:25.546Z,100095.86
2018-01-22T12:23:26.938Z,100090.27
2018-01-22T12:28:28.284Z,100088.83
2018-01-22T12:33:29.587Z,100084.98
2018-01-22T12:38:30.940Z,100080.05
2018-01-22T12:43:32.235Z,100082.12
2018-01-22T12:48:33.567Z,100090.19
2018-01-22T12:53:34.904Z,100091.86
2018-01-22T12:58:36.252Z,100092.21
2018-01-22T13:03:37.579Z,100100.08
2018-01-22T13:08:38.923Z,100091.79
2018-01-22T13:13:40.251Z,100108.77
2018-01-22T13:18:41.582Z,100114.13
2018-01-22T13:23:42.932Z,100118.41
2018-01-22T13:28:44.996Z,100122.45
2018-01-22T13:33:46.357Z,100124.92
2018-01-22T13:38:47.676Z,100131.83
2018-01-22T13:43:49.013Z,100134.48
2018-01-22T13:48:50.357Z,100134.23
2018-01-22T13:53:51.765Z,100129.41
2018-01-22T13:58:53.808Z,100133.95
2018-01-22T14:03:55.252Z,100152.61
2018-01-22T14:08:56.698Z,100160.80
2018-01-22T14:13:58.011Z,100179.53
2018-01-22T14:18:59.335Z,100187.86
2018-01-22T14:24:01.425Z,100195.67
2018-01-22T14:29:02.806Z,100201.64
2018-01-22T14:34:04.163Z,100213.15
2018-01-22T14:39:05.524Z,100209.61
2018-01-22T14:44:06.848Z,100215.32
2018-01-22T14:49:08.147Z,100228.34
2018-01-22T14:54:09.490Z,100232.16
2018-01-22T14:59:11.555Z,100246.47
2018-01-22T15:04:12.883Z,100246.22
2018-01-22T15:09:14.987Z,100255.02
2018-01-22T15:14:17.048Z,100256.09
2018-01-22T15:19:18.376Z,100271.34
2018-01-22T15:24:20.474Z,100273.24
2018-01-22T15:29:21.791Z,100288.44
2018-01-22T15:34:23.871Z,100294.97
2018-01-22T15:39:25.208Z,100307.66
2018-01-22T15:44:26.560Z,100321.84
2018-01-22T15:49:28.607Z,100336.64
2018-01-22T15:54:29.971Z,100336.38
2018-01-22T15:59:32.027Z,100346.19
2018-01-22T16:04:33.359Z,100353.14
2018-01-22T16:09:35.452Z,100360.42
2018-01-22T16:14:36.770Z,100378.66
2018-01-22T16:19:38.095Z,100383.34
2018-01-22T16:24:39.423Z,100395.78
2018-01-22T16:29:40.740Z,100400.52
2018-01-22T16:34:42.118Z,100410.02
2018-01-22T16:39:44.199Z,100424.45
2018-01-22T16:44:45.574Z,100431.74
2018-01-22T16:49:46.898Z,100446.16
2018-01-22T16:54:48.988Z,100460.30
2018-01-22T16:59:50.303Z,100468.27
2018-01-22T17:04:52.359Z,100475.45
2018-01-22T17:09:53.707Z,100493.83
2018-01-22T17:14:55.031Z,100494.22
2018-01-22T17:19:56.346Z,100504.47
2018-01-22T17:24:57.753Z,100514.74
2018-01-22T17:30:00.543Z,100525.72
2018-01-22T17:35:01.978Z,100526.79
2018-01-22T17:40:04.150Z,100547.78
2018-01-22T17:45:05.602Z,100557.78
2018-01-22T17:50:06.950Z,100572.07
2018-01-22T17:55:08.294Z,100580.58
2018-01-22T18:00:09.640Z,100579.97
2018-01-22T18:05:11.720Z,100595.97
2018-01-22T18:10:13.056Z,100600.70
2018-01-22T18:15:14.366Z,100605.30
2018-01-22T18:20:15.735Z,100613.38
2018-01-22T18:25:17.194Z,100624.21
2018-01-22T18:30:18.506Z,100627.49
2018-01-22T18:35:20.913Z,100628.55
2018-01-22T18:40:22.278Z,100628.80
2018-01-22T18:45:23.630Z,100623.83
2018-01-22T18:50:24.967Z,100626.58
2018-01-22T18:55:26.375Z,100634.80
2018-01-22T19:00:28.496Z,100648.66
2018-01-22T19:05:29.862Z,100654.79
2018-01-22T19:10:31.364Z,100653.62
2018-01-22T19:15:34.683Z,100659.31
2018-01-22T19:20:36.360Z,100670.34
2018-01-22T19:25:38.980Z,100672.86
2018-01-22T19:30:40.315Z,100689.22
2018-01-22T19:35:42.248Z,100713.06
2018-01-22T19:40:43.623Z,100724.72
2018-01-22T19:45:44.980Z,100720.45
2018-01-22T19:50:46.868Z,100726.81
2018-01-22T19:55:48.302Z,100738.31
2018-01-22T20:00:49.794Z,100757.83
2018-01-22T20:05:51.167Z,100755.37
2018-01-22T20:10:53.252Z,100774.06
2018-01-22T20:15:54.695Z,100764.58
2018-01-22T20:20:56.022Z,100764.34
2018-01-22T20:25:58.410Z,100783.46
2018-01-22T20:30:59.856Z,100802.59
2018-01-22T20:36:01.963Z,100807.92
2018-01-22T20:41:04.392Z,100809.45
2018-01-22T20:46:06.469Z,100826.30
2018-01-22T20:51:07.820Z,100832.38
2018-01-22T20:56:09.161Z,100847.34
2018-01-22T21:01:10.564Z,100867.22
2018-01-22T21:06:12.986Z,100862.61
2018-01-22T21:11:14.408Z,100870.22
2018-01-22T21:16:16.685Z,100869.68
2018-01-22T21:21:18.784Z,100871.19
2018-01-22T21:26:20.935Z,100879.64
2018-01-22T21:31:22.361Z,100887.25
2018-01-22T21:36:23.948Z,100893.99
2018-01-22T21:41:25.524Z,100902.09
2018-01-22T21:46:26.949Z,100917.78
2018-01-22T21:51:28.374Z,100922.13
2018-01-22T21:56:31.263Z,100926.07
2018-01-22T22:01:32.701Z,100936.25
2018-01-22T22:06:34.058Z,100953.34
2018-01-22T22:11:35.355Z,100952.19
2018-01-22T22:16:36.676Z,100970.01
2018-01-22T22:21:38.088Z,100975.59
2018-01-22T22:26:39.666Z,100978.77
2018-01-22T22:31:40.992Z,100979.31
2018-01-22T22:36:42.374Z,100982.25
2018-01-22T22:41:43.731Z,100986.49
2018-01-22T22:46:45.094Z,101013.01
2018-01-22T22:51:47.151Z,101004.89
2018-01-22T22:56:49.307Z,101016.23
2018-01-22T23:01:50.731Z,101023.69
2018-01-22T23:06:52.185Z,101032.71
2018-01-22T23:11:53.572Z,101041.84
2018-01-22T23:16:55.825Z,101040.86
2018-01-22T23:21:57.146Z,101054.61
2018-01-22T23:26:58.441Z,101064.94
2018-01-22T23:31:59.752Z,101091.42
2018-01-22T23:37:01.072Z,101083.47
2018-01-22T23:42:02.559Z,101089.89
2018-01-22T23:47:03.971Z,101104.70
2018-01-22T23:52:05.283Z,101096.75
2018-01-22T23:57:06.654Z,101116.88
